createdAt,value
2018-12-17T00:00:11.935Z,0.30
2018-12-17T00:01:49.110Z,0.30
2018-12-17T00:03:26.171Z,0.20
2018-12-17T00:05:03.187Z,0.10
2018-12-17T00:06:40.184Z,0.10
2018-12-17T00:08:15.352Z,0.10
2018-12-17T00:09:50.465Z,0.00
2018-12-17T00:11:25.968Z,-0.10
2018-12-17T00:13:01.099Z,-0.10
2018-12-17T00:14:36.128Z,-0.20
2018-12-17T00:16:11.314Z,-0.20
2018-12-17T00:17:46.425Z,-0.30
2018-12-17T00:19:21.540Z,-0.30
2018-12-17T00:20:56.709Z,-0.30
2018-12-17T00:22:32.023Z,-0.30
2018-12-17T00:24:07.128Z,-0.40
2018-12-17T00:25:42.209Z,-0.40
2018-12-17T00:27:17.704Z,-0.40
2018-12-17T00:28:53.084Z,-0.40
2018-12-17T00:30:28.137Z,-0.40
2018-12-17T00:32:03.323Z,-0.40
2018-12-17T00:33:38.542Z,-0.50
2018-12-17T00:35:13.752Z,-0.50
2018-12-17T00:36:48.787Z,-0.50
2018-12-17T00:38:24.075Z,-0.50
2018-12-17T00:39:59.516Z,-0.50
2018-12-17T00:41:34.581Z,-0.50
2018-12-17T00:43:10.003Z,-0.60
2018-12-17T00:44:45.037Z,-0.60
2018-12-17T00:46:20.079Z,-0.60
2018-12-17T00:47:55.204Z,-0.60
2018-12-17T00:49:30.401Z,-0.60
2018-12-17T00:51:05.806Z,-0.70
2018-12-17T00:52:41.013Z,-0.60
2018-12-17T00:54:16.220Z,-0.60
2018-12-17T00:55:51.197Z,-0.50
2018-12-17T00:57:33.189Z,-0.40
2018-12-17T00:59:08.319Z,-0.40
2018-12-17T01:00:43.459Z,-0.40
2018-12-17T01:02:18.643Z,-0.40
2018-12-17T01:03:53.695Z,-0.40
2018-12-17T01:05:28.827Z,-0.30
2018-12-17T01:07:03.875Z,-0.30
2018-12-17T01:08:38.952Z,-0.30
2018-12-17T01:10:14.102Z,-0.30
2018-12-17T01:11:49.162Z,-0.30
2018-12-17T01:13:24.364Z,-0.40
2018-12-17T01:14:59.404Z,-0.40
2018-12-17T01:16:34.444Z,-0.40
2018-12-17T01:18:09.579Z,-0.50
2018-12-17T01:19:44.915Z,-0.50
2018-12-17T01:21:20.410Z,-0.60
2018-12-17T01:22:55.424Z,-0.60
2018-12-17T01:24:30.510Z,-0.70
2018-12-17T01:26:05.697Z,-0.70
2018-12-17T01:27:40.705Z,-0.70
2018-12-17T01:29:15.685Z,-0.70
2018-12-17T01:30:50.799Z,-0.80
2018-12-17T01:32:25.847Z,-0.80
2018-12-17T01:34:02.652Z,-0.80
2018-12-17T01:35:39.339Z,-0.90
2018-12-17T01:37:16.283Z,-0.80
2018-12-17T01:38:53.045Z,-0.70
2018-12-17T01:40:29.755Z,-0.70
2018-12-17T01:42:07.084Z,-0.70
2018-12-17T01:43:44.040Z,-0.70
2018-12-17T01:45:19.164Z,-0.70
2018-12-17T01:46:54.447Z,-0.80
2018-12-17T01:48:29.552Z,-0.80
2018-12-17T01:50:04.992Z,-0.80
2018-12-17T01:51:40.118Z,-0.90
2018-12-17T01:53:15.186Z,-0.90
2018-12-17T01:54:50.179Z,-1.00
2018-12-17T01:56:25.351Z,-1.00
2018-12-17T01:58:00.534Z,-1.00
2018-12-17T01:59:35.751Z,-1.00
2018-12-17T02:01:10.840Z,-1.10
2018-12-17T02:02:46.090Z,-1.10
2018-12-17T02:04:21.191Z,-1.10
2018-12-17T02:05:56.291Z,-1.10
2018-12-17T02:07:31.424Z,-1.10
2018-12-17T02:09:07.613Z,-1.10
2018-12-17T02:10:44.653Z,-1.10
2018-12-17T02:12:19.736Z,-1.10
2018-12-17T02:13:55.683Z,-1.20
2018-12-17T02:15:31.767Z,-1.20
2018-12-17T02:17:09.210Z,-1.20
2018-12-17T02:18:44.345Z,-1.30
2018-12-17T02:20:19.390Z,-1.30
2018-12-17T02:21:54.396Z,-1.30
2018-12-17T02:23:29.418Z,-1.30
2018-12-17T02:25:04.832Z,-1.30
2018-12-17T02:26:39.883Z,-1.30
2018-12-17T02:28:15.054Z,-1.30
2018-12-17T02:29:50.154Z,-1.30
2018-12-17T02:31:25.195Z,-1.30
2018-12-17T02:33:00.218Z,-1.30
2018-12-17T02:34:35.259Z,-1.30
2018-12-17T02:36:10.432Z,-1.30
2018-12-17T02:37:45.541Z,-1.30
2018-12-17T02:39:20.623Z,-1.40
2018-12-17T02:40:55.662Z,-1.40
2018-12-17T02:42:30.656Z,-1.40
2018-12-17T02:44:06.084Z,-1.40
2018-12-17T02:45:41.121Z,-1.40
2018-12-17T02:47:16.178Z,-1.40
2018-12-17T02:48:51.232Z,-1.50
2018-12-17T02:50:26.352Z,-1.50
2018-12-17T02:52:01.428Z,-1.50
2018-12-17T02:53:36.541Z,-1.50
2018-12-17T02:55:11.659Z,-1.60
2018-12-17T02:56:46.854Z,-1.60
2018-12-17T02:58:21.876Z,-1.60
2018-12-17T02:59:57.088Z,-1.50
2018-12-17T03:01:32.344Z,-1.50
2018-12-17T03:03:07.705Z,-1.50
2018-12-17T03:04:42.985Z,-1.50
2018-12-17T03:06:18.185Z,-1.50
2018-12-17T03:07:53.203Z,-1.50
2018-12-17T03:09:28.239Z,-1.50
2018-12-17T03:11:03.701Z,-1.50
2018-12-17T03:12:38.879Z,-1.60
2018-12-17T03:14:14.025Z,-1.60
2018-12-17T03:15:49.057Z,-1.50
2018-12-17T03:17:24.186Z,-1.50
2018-12-17T03:18:59.584Z,-1.50
2018-12-17T03:20:34.879Z,-1.50
2018-12-17T03:22:11.288Z,-1.50
2018-12-17T03:23:48.097Z,-1.50
2018-12-17T03:25:25.348Z,-1.40
2018-12-17T03:27:01.969Z,-1.40
2018-12-17T03:28:37.612Z,-1.50
2018-12-17T03:30:12.923Z,-1.40
2018-12-17T03:31:48.621Z,-1.40
2018-12-17T03:33:23.816Z,-1.30
2018-12-17T03:34:59.058Z,-1.30
2018-12-17T03:36:34.321Z,-1.30
2018-12-17T03:38:09.407Z,-1.30
2018-12-17T03:39:44.603Z,-1.30
2018-12-17T03:41:19.913Z,-1.30
2018-12-17T03:42:55.044Z,-1.20
2018-12-17T03:44:30.074Z,-1.20
2018-12-17T03:46:05.284Z,-1.20
2018-12-17T03:47:40.494Z,-1.20
2018-12-17T03:49:17.509Z,-1.20
2018-12-17T03:50:52.639Z,-1.20
2018-12-17T03:52:27.707Z,-1.20
2018-12-17T03:54:02.754Z,-1.20
2018-12-17T03:55:37.812Z,-1.20
2018-12-17T03:57:12.913Z,-1.20
2018-12-17T03:58:48.040Z,-1.20
2018-12-17T04:00:23.195Z,-1.10
2018-12-17T04:01:58.301Z,-1.10
2018-12-17T04:03:33.334Z,-1.20
2018-12-17T04:05:08.794Z,-1.10
2018-12-17T04:06:44.105Z,-1.10
2018-12-17T04:08:19.254Z,-1.10
2018-12-17T04:09:55.660Z,-1.10
2018-12-17T04:11:30.678Z,-1.10
2018-12-17T04:13:05.754Z,-1.10
2018-12-17T04:14:40.810Z,-1.10
2018-12-17T04:16:15.912Z,-1.10
2018-12-17T04:17:50.996Z,-1.00
2018-12-17T04:19:26.075Z,-1.00
2018-12-17T04:21:01.122Z,-1.00
2018-12-17T04:22:36.284Z,-1.00
2018-12-17T04:24:11.355Z,-1.00
2018-12-17T04:25:48.409Z,-1.00
2018-12-17T04:27:23.672Z,-1.00
2018-12-17T04:28:58.706Z,-1.00
2018-12-17T04:30:33.878Z,-1.10
2018-12-17T04:32:08.991Z,-1.10
2018-12-17T04:33:44.143Z,-1.10
2018-12-17T04:35:19.184Z,-1.10
2018-12-17T04:36:54.205Z,-1.10
2018-12-17T04:38:29.255Z,-1.10
2018-12-17T04:40:04.788Z,-1.10
2018-12-17T04:41:39.919Z,-1.10
2018-12-17T04:43:16.271Z,-1.00
2018-12-17T04:44:52.254Z,-1.00
2018-12-17T04:46:29.933Z,-1.00
2018-12-17T04:48:05.178Z,-1.00
2018-12-17T04:49:40.195Z,-1.00
2018-12-17T04:51:15.249Z,-1.00
2018-12-17T04:52:50.249Z,-1.00
2018-12-17T04:54:25.790Z,-1.00
2018-12-17T04:56:00.742Z,-1.00
2018-12-17T04:57:36.052Z,-1.00
2018-12-17T04:59:14.596Z,-1.00
2018-12-17T05:00:48.223Z,-1.10
2018-12-17T05:02:23.290Z,-1.10
2018-12-17T05:03:58.306Z,-1.10
2018-12-17T05:05:33.416Z,-1.20
2018-12-17T05:07:08.429Z,-1.20
2018-12-17T05:08:43.713Z,-1.20
2018-12-17T05:10:18.685Z,-1.20
2018-12-17T05:11:53.842Z,-1.20
2018-12-17T05:13:28.854Z,-1.20
2018-12-17T05:15:04.278Z,-1.20
2018-12-17T05:16:39.323Z,-1.20
2018-12-17T05:18:14.525Z,-1.10
2018-12-17T05:19:49.502Z,-1.20
2018-12-17T05:21:24.559Z,-1.20
2018-12-17T05:22:59.597Z,-1.10
2018-12-17T05:24:34.573Z,-1.20
2018-12-17T05:26:09.574Z,-1.10
2018-12-17T05:27:44.544Z,-1.10
2018-12-17T05:29:21.608Z,-1.10
2018-12-17T05:30:56.855Z,-1.10
2018-12-17T05:32:31.955Z,-1.20
2018-12-17T05:34:07.000Z,-1.20
2018-12-17T05:35:41.952Z,-1.20
2018-12-17T05:37:16.973Z,-1.20
2018-12-17T05:38:52.123Z,-1.20
2018-12-17T05:40:27.062Z,-1.30
2018-12-17T05:42:02.073Z,-1.30
2018-12-17T05:43:38.550Z,-1.30
2018-12-17T05:45:13.933Z,-1.30
2018-12-17T05:46:48.965Z,-1.30
2018-12-17T05:48:24.094Z,-1.40
2018-12-17T05:49:59.177Z,-1.40
2018-12-17T05:51:34.127Z,-1.40
2018-12-17T05:53:09.169Z,-1.40
2018-12-17T05:54:44.310Z,-1.30
2018-12-17T05:56:19.517Z,-1.40
2018-12-17T05:57:54.521Z,-1.30
2018-12-17T05:59:29.562Z,-1.30
2018-12-17T06:01:04.529Z,-1.30
2018-12-17T06:02:39.486Z,-1.30
2018-12-17T06:04:14.508Z,-1.20
2018-12-17T06:05:49.472Z,-1.20
2018-12-17T06:07:24.695Z,-1.20
2018-12-17T06:08:59.723Z,-1.20
2018-12-17T06:10:34.760Z,-1.10
2018-12-17T06:12:10.067Z,-1.10
2018-12-17T06:13:45.341Z,-1.20
2018-12-17T06:15:20.270Z,-1.20
2018-12-17T06:16:55.356Z,-1.20
2018-12-17T06:18:30.311Z,-1.30
2018-12-17T06:20:05.907Z,-1.30
2018-12-17T06:21:40.895Z,-1.40
2018-12-17T06:23:15.969Z,-1.40
2018-12-17T06:24:58.781Z,-1.50
2018-12-17T06:26:33.787Z,-1.50
2018-12-17T06:28:08.911Z,-1.50
2018-12-17T06:29:43.841Z,-1.50
2018-12-17T06:31:18.880Z,-1.50
2018-12-17T06:32:54.059Z,-1.60
2018-12-17T06:34:29.319Z,-1.60
2018-12-17T06:36:04.512Z,-1.50
2018-12-17T06:37:39.702Z,-1.50
2018-12-17T06:39:14.942Z,-1.50
2018-12-17T06:40:50.155Z,-1.50
2018-12-17T06:42:25.389Z,-1.40
2018-12-17T06:44:00.386Z,-1.40
2018-12-17T06:45:35.341Z,-1.40
2018-12-17T06:47:10.362Z,-1.40
2018-12-17T06:48:45.702Z,-1.40
2018-12-17T06:50:21.053Z,-1.40
2018-12-17T06:51:56.371Z,-1.40
2018-12-17T06:53:31.361Z,-1.40
2018-12-17T06:55:06.500Z,-1.40
2018-12-17T06:56:41.489Z,-1.50
2018-12-17T06:58:16.628Z,-1.50
2018-12-17T06:59:51.646Z,-1.50
2018-12-17T07:01:28.117Z,-1.60
2018-12-17T07:03:06.405Z,-1.60
2018-12-17T07:04:41.438Z,-1.60
2018-12-17T07:06:16.616Z,-1.60
2018-12-17T07:07:51.678Z,-1.60
2018-12-17T07:09:26.911Z,-1.60
2018-12-17T07:11:02.034Z,-1.60
2018-12-17T07:12:37.070Z,-1.70
2018-12-17T07:14:12.207Z,-1.70
2018-12-17T07:15:47.146Z,-1.70
2018-12-17T07:17:22.383Z,-1.70
2018-12-17T07:18:57.425Z,-1.70
2018-12-17T07:20:32.428Z,-1.70
2018-12-17T07:22:07.518Z,-1.60
2018-12-17T07:23:42.543Z,-1.60
2018-12-17T07:25:17.775Z,-1.60
2018-12-17T07:26:52.797Z,-1.50
2018-12-17T07:28:27.930Z,-1.50
2018-12-17T07:30:03.268Z,-1.40
2018-12-17T07:31:38.258Z,-1.30
2018-12-17T07:33:13.560Z,-1.30
2018-12-17T07:34:48.991Z,-1.20
2018-12-17T07:36:24.154Z,-1.20
2018-12-17T07:37:59.215Z,-1.10
2018-12-17T07:39:34.742Z,-1.00
2018-12-17T07:41:09.828Z,-0.90
2018-12-17T07:42:44.912Z,-0.80
2018-12-17T07:44:20.057Z,-0.80
2018-12-17T07:45:55.035Z,-0.80
2018-12-17T07:47:31.741Z,-0.70
2018-12-17T07:49:07.195Z,-0.70
2018-12-17T07:50:42.130Z,-0.60
2018-12-17T07:52:17.307Z,-0.60
2018-12-17T07:53:52.348Z,-0.50
2018-12-17T07:55:27.493Z,-0.50
2018-12-17T07:57:02.622Z,-0.40
2018-12-17T07:58:37.757Z,-0.40
2018-12-17T08:00:13.402Z,-0.30
2018-12-17T08:01:48.373Z,-0.30
2018-12-17T08:03:23.373Z,-0.20
2018-12-17T08:04:58.390Z,-0.20
2018-12-17T08:06:33.378Z,-0.10
2018-12-17T08:08:08.442Z,-0.10
2018-12-17T08:09:43.459Z,0.00
2018-12-17T08:11:18.620Z,0.10
2018-12-17T08:12:53.651Z,0.20
2018-12-17T08:14:28.777Z,0.30
2018-12-17T08:16:03.906Z,0.30
2018-12-17T08:17:38.933Z,0.40
2018-12-17T08:19:14.123Z,0.40
2018-12-17T08:20:49.501Z,0.50
2018-12-17T08:22:24.881Z,0.60
2018-12-17T08:24:00.007Z,0.60
2018-12-17T08:25:35.407Z,0.60
2018-12-17T08:27:10.656Z,0.70
2018-12-17T08:28:46.586Z,0.70
2018-12-17T08:30:21.643Z,0.80
2018-12-17T08:31:56.714Z,0.80
2018-12-17T08:33:38.470Z,0.90
2018-12-17T08:35:13.781Z,0.90
2018-12-17T08:36:48.875Z,1.00
2018-12-17T08:38:23.998Z,1.10
2018-12-17T08:39:59.089Z,1.20
2018-12-17T08:41:34.174Z,1.20
2018-12-17T08:43:09.292Z,1.30
2018-12-17T08:44:44.545Z,1.40
2018-12-17T08:46:19.981Z,1.50
2018-12-17T08:47:55.120Z,1.50
2018-12-17T08:49:30.851Z,1.60
2018-12-17T08:51:08.419Z,1.70
2018-12-17T08:52:45.074Z,1.80
2018-12-17T08:54:20.112Z,1.90
2018-12-17T08:55:55.363Z,2.00
2018-12-17T08:57:30.577Z,2.00
2018-12-17T08:59:05.977Z,2.00
2018-12-17T09:00:41.137Z,2.10
2018-12-17T09:02:16.413Z,2.10
2018-12-17T09:03:51.484Z,2.10
2018-12-17T09:05:27.948Z,2.10
2018-12-17T09:07:04.530Z,2.20
2018-12-17T09:08:39.755Z,2.20
2018-12-17T09:10:14.917Z,2.20
2018-12-17T09:11:50.051Z,2.20
2018-12-17T09:13:25.282Z,2.30
2018-12-17T09:15:00.572Z,2.30
2018-12-17T09:16:35.622Z,2.30
2018-12-17T09:18:10.760Z,2.40
2018-12-17T09:19:46.898Z,2.40
2018-12-17T09:21:22.064Z,2.40
2018-12-17T09:22:57.177Z,2.60
2018-12-17T09:24:32.122Z,2.70
2018-12-17T09:26:07.358Z,2.80
2018-12-17T09:27:42.580Z,2.80
2018-12-17T09:29:17.588Z,2.80
2018-12-17T09:30:52.919Z,2.90
2018-12-17T09:32:28.031Z,3.00
2018-12-17T09:34:03.087Z,3.00
2018-12-17T09:35:38.089Z,3.10
2018-12-17T09:37:13.081Z,3.20
2018-12-17T09:38:48.168Z,3.30
2018-12-17T09:40:23.314Z,3.30
2018-12-17T09:41:58.281Z,3.30
2018-12-17T09:43:33.271Z,3.40
2018-12-17T09:45:08.618Z,3.50
2018-12-17T09:46:43.835Z,3.50
2018-12-17T09:48:18.841Z,3.60
2018-12-17T09:49:53.970Z,3.70
2018-12-17T09:51:29.168Z,3.70
2018-12-17T09:53:04.180Z,3.80
2018-12-17T09:54:39.282Z,3.90
2018-12-17T09:56:14.385Z,4.00
2018-12-17T09:57:49.548Z,4.10
2018-12-17T09:59:24.618Z,4.10
2018-12-17T10:00:59.627Z,4.20
2018-12-17T10:02:34.690Z,4.30
2018-12-17T10:04:09.756Z,4.30
2018-12-17T10:05:44.906Z,4.30
2018-12-17T10:07:19.858Z,4.40
2018-12-17T10:08:55.013Z,4.40
2018-12-17T10:10:30.013Z,4.50
2018-12-17T10:12:06.071Z,4.60
2018-12-17T10:13:41.174Z,4.70
2018-12-17T10:15:16.267Z,4.80
2018-12-17T10:16:51.281Z,4.90
2018-12-17T10:18:26.364Z,4.90
2018-12-17T10:20:01.422Z,5.10
2018-12-17T10:21:37.725Z,5.10
2018-12-17T10:23:14.737Z,5.30
2018-12-17T10:24:50.379Z,5.40
2018-12-17T10:26:26.845Z,5.40
2018-12-17T10:28:01.850Z,5.40
2018-12-17T10:29:36.840Z,5.40
2018-12-17T10:31:12.146Z,5.40
2018-12-17T10:32:47.201Z,5.30
2018-12-17T10:34:22.237Z,5.30
2018-12-17T10:35:57.202Z,5.20
2018-12-17T10:37:32.362Z,5.20
2018-12-17T10:39:08.020Z,5.00
2018-12-17T10:40:44.988Z,4.90
2018-12-17T10:42:20.073Z,5.00
2018-12-17T10:43:55.132Z,5.00
2018-12-17T10:45:30.185Z,5.00
2018-12-17T10:47:05.347Z,4.90
2018-12-17T10:48:40.599Z,5.10
2018-12-17T10:50:15.662Z,5.20
2018-12-17T10:51:50.688Z,5.30
2018-12-17T10:53:25.807Z,5.40
2018-12-17T10:55:00.741Z,5.30
2018-12-17T10:56:35.833Z,5.30
2018-12-17T10:58:10.980Z,5.20
2018-12-17T10:59:46.012Z,5.30
2018-12-17T11:01:26.404Z,5.30
2018-12-17T11:03:05.663Z,5.30
2018-12-17T11:04:44.362Z,5.20
2018-12-17T11:06:21.630Z,5.30
2018-12-17T11:07:56.565Z,5.30
2018-12-17T11:09:31.713Z,5.30
2018-12-17T11:11:06.713Z,5.40
2018-12-17T11:12:41.886Z,5.40
2018-12-17T11:14:16.968Z,5.40
2018-12-17T11:15:52.041Z,5.50
2018-12-17T11:17:27.019Z,5.50
2018-12-17T11:19:02.050Z,5.40
2018-12-17T11:20:37.042Z,5.30
2018-12-17T11:22:12.253Z,5.40
2018-12-17T11:23:47.413Z,5.30
2018-12-17T11:25:22.495Z,5.20
2018-12-17T11:26:57.487Z,5.20
2018-12-17T11:28:32.439Z,5.10
2018-12-17T11:30:10.096Z,5.10
2018-12-17T11:31:45.240Z,5.10
2018-12-17T11:33:20.268Z,5.00
2018-12-17T11:34:55.347Z,5.00
2018-12-17T11:36:30.525Z,5.00
2018-12-17T11:38:05.766Z,5.00
2018-12-17T11:39:40.996Z,4.90
2018-12-17T11:41:15.999Z,4.90
2018-12-17T11:42:51.102Z,4.90
2018-12-17T11:44:26.209Z,4.90
2018-12-17T11:46:03.446Z,4.80
2018-12-17T11:47:38.570Z,4.90
2018-12-17T11:49:13.590Z,4.80
2018-12-17T11:50:48.873Z,4.80
2018-12-17T11:52:24.126Z,4.80
2018-12-17T11:53:59.137Z,4.80
2018-12-17T11:55:34.165Z,4.90
2018-12-17T11:58:14.678Z,4.90
2018-12-17T11:59:51.643Z,5.00
2018-12-17T12:01:26.882Z,5.00
2018-12-17T12:03:01.953Z,5.00
2018-12-17T12:04:36.944Z,5.00
2018-12-17T12:06:14.199Z,5.00
2018-12-17T12:07:49.312Z,5.10
2018-12-17T12:09:27.212Z,5.20
2018-12-17T12:11:02.338Z,5.20
2018-12-17T12:12:37.469Z,5.30
2018-12-17T12:14:12.468Z,5.40
2018-12-17T12:15:47.485Z,5.50
2018-12-17T12:17:22.493Z,5.60
2018-12-17T12:18:57.545Z,5.70
2018-12-17T12:20:32.706Z,5.70
2018-12-17T12:22:07.647Z,5.80
2018-12-17T12:23:42.686Z,5.80
2018-12-17T12:25:17.889Z,5.70
2018-12-17T12:26:53.942Z,5.70
2018-12-17T12:28:28.900Z,5.70
2018-12-17T12:30:05.109Z,5.70
2018-12-17T12:31:40.257Z,5.70
2018-12-17T12:33:15.292Z,5.80
2018-12-17T12:34:50.496Z,5.80
2018-12-17T12:36:25.532Z,5.90
2018-12-17T12:38:00.577Z,5.90
2018-12-17T12:39:35.792Z,6.00
2018-12-17T12:41:10.895Z,5.90
2018-12-17T12:42:51.619Z,5.90
2018-12-17T12:44:23.272Z,6.00
2018-12-17T12:45:58.302Z,6.00
2018-12-17T12:47:33.448Z,6.00
2018-12-17T12:49:15.203Z,6.10
2018-12-17T12:50:50.233Z,6.10
2018-12-17T12:52:25.218Z,6.10
2018-12-17T12:54:00.254Z,6.20
2018-12-17T12:55:35.250Z,6.20
2018-12-17T12:57:10.345Z,6.30
2018-12-17T12:58:45.354Z,6.30
2018-12-17T13:00:20.464Z,6.30
2018-12-17T13:01:55.675Z,6.30
2018-12-17T13:03:30.935Z,6.20
2018-12-17T13:05:06.237Z,6.20
2018-12-17T13:06:41.383Z,6.20
2018-12-17T13:08:16.511Z,6.20
2018-12-17T13:09:51.513Z,6.20
2018-12-17T13:11:26.573Z,6.30
2018-12-17T13:13:01.714Z,6.20
2018-12-17T13:14:36.747Z,6.20
2018-12-17T13:16:11.741Z,6.20
2018-12-17T13:17:46.711Z,6.10
2018-12-17T13:19:21.744Z,6.00
2018-12-17T13:20:56.754Z,5.90
2018-12-17T13:22:31.717Z,5.80
2018-12-17T13:24:06.773Z,5.70
2018-12-17T13:25:45.596Z,5.70
2018-12-17T13:27:20.613Z,5.60
2018-12-17T13:28:55.622Z,5.50
2018-12-17T13:30:30.612Z,5.50
2018-12-17T13:32:05.577Z,5.50
2018-12-17T13:33:40.615Z,5.60
2018-12-17T13:35:15.657Z,5.60
2018-12-17T13:36:50.794Z,5.50
2018-12-17T13:38:25.869Z,5.50
2018-12-17T13:40:01.040Z,5.50
2018-12-17T13:41:36.176Z,5.50
2018-12-17T13:43:11.229Z,5.40
2018-12-17T13:44:46.361Z,5.40
2018-12-17T13:46:21.386Z,5.40
2018-12-17T13:47:56.380Z,5.40
2018-12-17T13:49:31.417Z,5.30
2018-12-17T13:51:11.717Z,5.30
2018-12-17T13:52:47.357Z,5.30
2018-12-17T13:54:22.465Z,5.40
2018-12-17T13:55:57.469Z,5.40
2018-12-17T13:57:32.466Z,5.40
2018-12-17T13:59:07.554Z,5.40
2018-12-17T14:00:42.654Z,5.50
2018-12-17T14:02:17.622Z,5.50
2018-12-17T14:03:52.849Z,5.50
2018-12-17T14:05:27.915Z,5.50
2018-12-17T14:07:03.083Z,5.60
2018-12-17T14:08:38.078Z,5.60
2018-12-17T14:10:18.754Z,5.60
2018-12-17T14:11:54.071Z,5.60
2018-12-17T14:13:29.042Z,5.70
2018-12-17T14:15:04.416Z,5.70
2018-12-17T14:16:44.813Z,5.70
2018-12-17T14:18:25.703Z,5.70
2018-12-17T14:20:06.199Z,5.70
2018-12-17T14:21:46.752Z,5.70
2018-12-17T14:23:21.710Z,5.60
2018-12-17T14:25:03.655Z,5.60
2018-12-17T14:26:38.741Z,5.60
2018-12-17T14:28:13.970Z,5.60
2018-12-17T14:29:55.585Z,5.50
2018-12-17T14:31:30.577Z,5.50
2018-12-17T14:33:05.682Z,5.50
2018-12-17T14:34:40.713Z,5.50
2018-12-17T14:36:15.748Z,5.40
2018-12-17T14:37:56.185Z,5.40
2018-12-17T14:39:31.282Z,5.40
2018-12-17T14:41:07.040Z,5.30
2018-12-17T14:42:42.038Z,5.30
2018-12-17T14:44:22.211Z,5.30
2018-12-17T14:45:57.663Z,5.20
2018-12-17T14:47:32.856Z,5.20
2018-12-17T14:49:07.986Z,5.20
2018-12-17T14:50:43.008Z,5.20
2018-12-17T14:52:18.085Z,5.10
2018-12-17T14:53:53.140Z,5.10
2018-12-17T14:55:28.399Z,5.10
2018-12-17T14:57:03.684Z,5.10
2018-12-17T14:58:44.495Z,5.00
2018-12-17T15:00:22.622Z,4.90
2018-12-17T15:01:57.619Z,4.90
2018-12-17T15:03:32.574Z,4.80
2018-12-17T15:05:07.899Z,4.70
2018-12-17T15:06:44.160Z,4.70
2018-12-17T15:08:19.231Z,4.60
2018-12-17T15:09:54.217Z,4.50
2018-12-17T15:11:29.215Z,4.50
2018-12-17T15:13:04.480Z,4.40
2018-12-17T15:14:46.106Z,4.20
2018-12-17T15:18:03.531Z,4.10
2018-12-17T15:19:39.677Z,4.00
2018-12-17T15:21:14.989Z,3.90
2018-12-17T15:22:49.961Z,3.80
2018-12-17T15:24:25.252Z,3.80
2018-12-17T15:26:00.242Z,3.70
2018-12-17T15:27:35.235Z,3.60
2018-12-17T15:29:10.473Z,3.60
2018-12-17T15:30:45.570Z,3.50
2018-12-17T15:32:20.788Z,3.50
2018-12-17T15:33:55.913Z,3.50
2018-12-17T15:35:30.953Z,3.50
2018-12-17T15:37:06.494Z,3.50
2018-12-17T15:38:41.514Z,3.50
2018-12-17T15:40:16.635Z,3.50
2018-12-17T15:41:51.626Z,3.50
2018-12-17T15:43:26.884Z,3.50
2018-12-17T15:45:02.030Z,3.40
2018-12-17T15:46:37.247Z,3.40
2018-12-17T15:48:12.540Z,3.40
2018-12-17T15:49:47.588Z,3.40
2018-12-17T15:51:22.537Z,3.40
2018-12-17T15:52:57.608Z,3.40
2018-12-17T15:54:32.530Z,3.40
2018-12-17T15:56:07.612Z,3.50
2018-12-17T15:57:42.674Z,3.50
2018-12-17T15:59:17.933Z,3.60
2018-12-17T16:00:53.102Z,3.70
2018-12-17T16:02:28.091Z,3.80
2018-12-17T16:04:03.187Z,3.90
2018-12-17T16:05:38.170Z,3.90
2018-12-17T16:07:13.150Z,4.00
2018-12-17T16:08:48.250Z,4.00
2018-12-17T16:10:23.278Z,4.10
2018-12-17T16:11:58.380Z,4.10
2018-12-17T16:13:33.649Z,4.10
2018-12-17T16:15:08.963Z,4.10
2018-12-17T16:16:44.129Z,4.20
2018-12-17T16:18:19.233Z,4.10
2018-12-17T16:19:54.204Z,4.10
2018-12-17T16:21:29.254Z,4.20
2018-12-17T16:23:04.218Z,4.20
2018-12-17T16:24:42.211Z,4.20
2018-12-17T16:26:17.862Z,4.20
2018-12-17T16:27:52.941Z,4.20
2018-12-17T16:29:27.944Z,4.20
2018-12-17T16:31:02.928Z,4.20
2018-12-17T16:32:37.942Z,4.20
2018-12-17T16:34:12.972Z,4.20
2018-12-17T16:35:48.054Z,4.20
2018-12-17T16:37:23.013Z,4.20
2018-12-17T16:38:58.007Z,4.20
2018-12-17T16:40:33.379Z,4.20
2018-12-17T16:42:09.428Z,4.20
2018-12-17T16:43:44.590Z,4.30
2018-12-17T16:45:19.957Z,4.30
2018-12-17T16:46:55.207Z,4.30
2018-12-17T16:48:30.147Z,4.30
2018-12-17T16:50:07.489Z,4.30
2018-12-17T16:51:42.803Z,4.30
2018-12-17T16:53:18.100Z,4.30
2018-12-17T16:54:53.410Z,4.40
2018-12-17T16:56:28.411Z,4.40
2018-12-17T16:58:03.663Z,4.40
2018-12-17T16:59:38.780Z,4.40
2018-12-17T17:01:14.057Z,4.40
2018-12-17T17:02:49.134Z,4.40
2018-12-17T17:04:24.210Z,4.40
2018-12-17T17:05:59.292Z,4.40
2018-12-17T17:07:34.274Z,4.40
2018-12-17T17:09:09.508Z,4.50
2018-12-17T17:10:44.548Z,4.50
2018-12-17T17:12:19.679Z,4.40
2018-12-17T17:13:54.935Z,4.40
2018-12-17T17:15:30.132Z,4.40
2018-12-17T17:17:05.159Z,4.40
2018-12-17T17:18:40.214Z,4.40
2018-12-17T17:20:15.317Z,4.40
2018-12-17T17:21:50.480Z,4.40
2018-12-17T17:23:25.711Z,4.40
2018-12-17T17:25:00.733Z,4.40
2018-12-17T17:26:35.818Z,4.40
2018-12-17T17:28:10.877Z,4.40
2018-12-17T17:29:45.950Z,4.40
2018-12-17T17:31:21.134Z,4.40
2018-12-17T17:32:56.378Z,4.40
2018-12-17T17:34:31.421Z,4.40
2018-12-17T17:36:06.506Z,4.30
2018-12-17T17:37:41.865Z,4.30
2018-12-17T17:39:16.881Z,4.30
2018-12-17T17:40:51.921Z,4.30
2018-12-17T17:42:26.976Z,4.30
2018-12-17T17:44:02.026Z,4.30
2018-12-17T17:45:37.199Z,4.30
2018-12-17T17:47:12.246Z,4.30
2018-12-17T17:48:47.603Z,4.30
2018-12-17T17:50:22.954Z,4.30
2018-12-17T17:51:58.041Z,4.30
2018-12-17T17:53:33.088Z,4.40
2018-12-17T17:55:08.651Z,4.40
2018-12-17T17:56:43.677Z,4.40
2018-12-17T17:58:20.013Z,4.40
2018-12-17T17:59:55.280Z,4.50
2018-12-17T18:01:30.487Z,4.40
2018-12-17T18:03:05.837Z,4.30
2018-12-17T18:04:40.972Z,4.40
2018-12-17T18:06:16.597Z,4.40
2018-12-17T18:07:51.813Z,4.40
2018-12-17T18:09:26.872Z,4.40
2018-12-17T18:11:02.036Z,4.40
2018-12-17T18:12:37.376Z,4.40
2018-12-17T18:14:12.501Z,4.40
2018-12-17T18:15:48.716Z,4.40
2018-12-17T18:17:23.820Z,4.40
2018-12-17T18:18:58.972Z,4.40
2018-12-17T18:20:33.972Z,4.40
2018-12-17T18:22:08.962Z,4.40
2018-12-17T18:23:44.081Z,4.40
2018-12-17T18:25:19.179Z,4.40
2018-12-17T18:26:54.197Z,4.40
2018-12-17T18:28:29.302Z,4.40
2018-12-17T18:30:05.608Z,4.40
2018-12-17T18:31:40.735Z,4.40
2018-12-17T18:33:15.779Z,4.40
2018-12-17T18:34:50.851Z,4.40
2018-12-17T18:36:25.997Z,4.40
2018-12-17T18:38:01.003Z,4.40
2018-12-17T18:39:36.009Z,4.30
2018-12-17T18:41:11.088Z,4.30
2018-12-17T18:42:46.142Z,4.30
2018-12-17T18:44:21.520Z,4.30
2018-12-17T18:45:56.788Z,4.20
2018-12-17T18:47:31.715Z,4.20
2018-12-17T18:49:06.796Z,4.20
2018-12-17T18:50:42.545Z,4.20
2018-12-17T18:52:18.566Z,4.20
2018-12-17T18:53:54.054Z,4.20
2018-12-17T18:55:29.312Z,4.10
2018-12-17T18:57:05.554Z,4.10
2018-12-17T18:58:40.579Z,4.10
2018-12-17T19:00:15.911Z,4.10
2018-12-17T19:01:51.040Z,4.10
2018-12-17T19:03:26.376Z,4.10
2018-12-17T19:05:01.532Z,4.10
2018-12-17T19:06:36.942Z,4.10
2018-12-17T19:08:11.976Z,4.10
2018-12-17T19:09:46.975Z,4.10
2018-12-17T19:11:22.239Z,4.10
2018-12-17T19:12:57.745Z,4.10
2018-12-17T19:14:33.044Z,4.10
2018-12-17T19:16:08.358Z,4.10
2018-12-17T19:17:44.427Z,4.10
2018-12-17T19:19:20.487Z,4.10
2018-12-17T19:20:55.888Z,4.10
2018-12-17T19:22:31.139Z,4.10
2018-12-17T19:24:06.475Z,4.10
2018-12-17T19:25:44.566Z,4.10
2018-12-17T19:27:19.997Z,4.10
2018-12-17T19:28:56.409Z,4.10
2018-12-17T19:30:31.462Z,4.10
2018-12-17T19:32:06.563Z,4.10
2018-12-17T19:33:41.943Z,4.00
2018-12-17T19:35:18.526Z,4.10
2018-12-17T19:36:54.400Z,4.00
2018-12-17T19:38:30.541Z,4.00
2018-12-17T19:40:06.901Z,4.00
2018-12-17T19:41:42.893Z,4.00
2018-12-17T19:43:18.509Z,4.00
2018-12-17T19:44:55.148Z,4.00
2018-12-17T19:46:30.415Z,4.00
2018-12-17T19:48:06.459Z,4.00
2018-12-17T19:49:41.889Z,4.00
2018-12-17T19:51:17.484Z,4.00
2018-12-17T19:52:53.307Z,4.00
2018-12-17T19:54:28.513Z,4.00
2018-12-17T19:56:04.563Z,3.90
2018-12-17T19:57:40.942Z,4.00
2018-12-17T19:59:16.307Z,3.90
2018-12-17T20:00:51.693Z,3.90
2018-12-17T20:02:27.015Z,3.90
2018-12-17T20:04:03.299Z,3.90
2018-12-17T20:05:38.767Z,3.90
2018-12-17T20:07:13.913Z,3.90
2018-12-17T20:08:48.898Z,3.90
2018-12-17T20:10:27.430Z,3.90
2018-12-17T20:12:02.669Z,3.80
2018-12-17T20:13:37.703Z,3.80
2018-12-17T20:15:12.863Z,3.80
2018-12-17T20:16:47.890Z,3.80
2018-12-17T20:18:22.859Z,3.80
2018-12-17T20:19:57.975Z,3.70
2018-12-17T20:21:33.128Z,3.70
2018-12-17T20:23:08.177Z,3.80
2018-12-17T20:24:43.219Z,3.80
2018-12-17T20:26:18.293Z,3.80
2018-12-17T20:27:53.237Z,3.70
2018-12-17T20:29:28.405Z,3.70
2018-12-17T20:31:03.535Z,3.60
2018-12-17T20:32:38.756Z,3.60
2018-12-17T20:34:13.773Z,3.50
2018-12-17T20:35:49.269Z,3.50
2018-12-17T20:37:24.348Z,3.40
2018-12-17T20:38:59.415Z,3.40
2018-12-17T20:40:40.789Z,3.40
2018-12-17T20:42:15.771Z,3.30
2018-12-17T20:43:50.807Z,3.30
2018-12-17T20:45:25.855Z,3.30
2018-12-17T20:47:02.164Z,3.20
2018-12-17T20:48:37.775Z,3.20
2018-12-17T20:50:12.960Z,3.20
2018-12-17T20:51:48.209Z,3.20
2018-12-17T20:53:23.275Z,3.20
2018-12-17T20:54:58.253Z,3.20
2018-12-17T20:56:34.387Z,3.20